Time;durP1;ratioP1;P1;durP2;ratioP2;P2;SDS_P1;SDS_P2;PMS_P1;PMS_P2;Temp;Humidity;BMP_temperature;BMP_pressure;BME280_temperature;BME280_humidity;BME280_pressure;Samples;Min_cycle;Max_cycle;Signal;HPM_P1;HPM_P2
2023/05/13 00:01:27;;;;;;;9.82;8.82;;;12.90;99.90;;;;;;4978150;28;20050;-77
2023/05/13 00:03:53;;;;;;;9.48;8.57;;;12.80;99.90;;;;;;4981560;28;20058;-78
2023/05/13 00:06:18;;;;;;;9.93;9.02;;;12.80;99.90;;;;;;4961138;28;20042;-77
2023/05/13 00:08:44;;;;;;;9.23;8.23;;;12.80;99.90;;;;;;4983385;28;20658;-78
2023/05/13 00:11:10;;;;;;;11.05;8.88;;;12.70;99.90;;;;;;4975306;28;20077;-77
2023/05/13 00:13:36;;;;;;;12.10;9.00;;;12.70;99.90;;;;;;4958226;28;20046;-76
2023/05/13 00:16:02;;;;;;;10.32;8.60;;;12.70;99.90;;;;;;4983403;28;20052;-77
2023/05/13 00:18:28;;;;;;;10.40;9.45;;;12.70;99.90;;;;;;4979250;28;20492;-76
2023/05/13 00:20:55;;;;;;;10.05;8.80;;;12.70;99.90;;;;;;4962848;28;20081;-76
2023/05/13 00:23:21;;;;;;;10.77;9.32;;;12.70;99.90;;;;;;4982147;28;20049;-77
2023/05/13 00:25:47;;;;;;;9.27;8.32;;;12.60;99.90;;;;;;4958995;28;20109;-77
2023/05/13 00:28:14;;;;;;;10.57;9.48;;;12.60;99.90;;;;;;4998803;28;20088;-77
2023/05/13 00:30:44;;;;;;;10.07;8.85;;;12.60;99.90;;;;;;4995420;28;20062;-77
2023/05/13 00:33:10;;;;;;;;;;;12.60;99.90;;;;;;4961741;28;20042;-77
2023/05/13 00:35:36;;;;;;;10.18;9.02;;;12.60;99.90;;;;;;4959817;28;19929;-77
2023/05/13 00:38:02;;;;;;;11.68;10.50;;;12.50;99.90;;;;;;4965060;28;20153;-78
2023/05/13 00:40:27;;;;;;;11.15;10.02;;;12.50;99.90;;;;;;4981918;28;20121;-78
2023/05/13 00:42:53;;;;;;;10.02;9.02;;;12.50;99.90;;;;;;4964533;28;20107;-76
2023/05/13 00:45:19;;;;;;;12.55;9.52;;;12.50;99.90;;;;;;4969425;28;20475;-76
2023/05/13 00:47:46;;;;;;;11.38;10.23;;;12.40;99.90;;;;;;4982899;28;20046;-77
2023/05/13 00:50:13;;;;;;;11.32;10.13;;;12.40;99.90;;;;;;4982982;28;20054;-77
2023/05/13 00:52:40;;;;;;;10.65;9.43;;;12.40;99.90;;;;;;4965325;28;20050;-77
2023/05/13 00:55:07;;;;;;;11.48;10.40;;;12.40;99.90;;;;;;4997211;28;20509;-76
2023/05/13 00:57:34;;;;;;;10.50;9.45;;;12.30;99.90;;;;;;5002968;28;20118;-77
2023/05/13 01:00:01;;;;;;;11.15;10.05;;;12.30;99.90;;;;;;4964844;28;20055;-77
2023/05/13 01:02:34;;;;;;;10.18;9.18;;;12.20;99.90;;;;;;5004353;28;20097;-77
2023/05/13 01:05:12;;;;;;;11.30;10.20;;;12.20;99.90;;;;;;4962682;28;20112;-77
2023/05/13 01:07:53;;;;;;;11.00;9.88;;;12.20;99.90;;;;;;4997423;28;20572;-77
2023/05/13 01:11:00;;;;;;;12.20;10.35;;;12.10;99.90;;;;;;4987220;28;20064;-77
2023/05/13 01:13:37;;;;;;;12.18;11.07;;;12.10;99.90;;;;;;4981560;28;20053;-77
2023/05/13 01:16:17;;;;;;;11.13;10.02;;;12.00;99.90;;;;;;5001957;28;20579;-77
2023/05/13 01:18:58;;;;;;;11.73;10.63;;;12.00;99.90;;;;;;5001382;28;20133;-79
2023/05/13 01:21:28;;;;;;;11.90;10.60;;;11.90;99.90;;;;;;4963986;28;20050;-77
2023/05/13 01:23:57;;;;;;;11.27;10.27;;;11.90;99.90;;;;;;4971858;28;20052;-77
2023/05/13 01:26:25;;;;;;;12.50;11.30;;;11.90;99.90;;;;;;4994864;28;20309;-77
2023/05/13 01:28:51;;;;;;;12.93;11.63;;;11.90;99.90;;;;;;4980469;28;20046;-77
2023/05/13 01:31:18;;;;;;;12.50;11.30;;;11.90;99.90;;;;;;4988836;28;20574;-77
2023/05/13 01:33:45;;;;;;;11.88;10.73;;;11.90;99.90;;;;;;4990863;28;20049;-77
2023/05/13 01:36:11;;;;;;;11.45;10.35;;;11.80;99.90;;;;;;4971144;28;20638;-77
2023/05/13 01:38:38;;;;;;;11.88;10.57;;;11.90;99.90;;;;;;4986712;28;20057;-77
2023/05/13 01:41:04;;;;;;;12.15;10.50;;;11.80;99.90;;;;;;4987234;28;20092;-77
2023/05/13 01:43:30;;;;;;;12.35;11.18;;;11.80;99.90;;;;;;5003855;28;20335;-78
2023/05/13 01:45:59;;;;;;;12.05;10.40;;;11.80;99.90;;;;;;4972333;28;20065;-77
2023/05/13 01:48:25;;;;;;;13.15;11.80;;;11.70;99.90;;;;;;4998088;28;20065;-78
2023/05/13 01:50:52;;;;;;;13.18;11.85;;;11.70;99.90;;;;;;4986826;28;20096;-78
2023/05/13 01:53:18;;;;;;;12.52;11.43;;;11.60;99.90;;;;;;4988903;28;20053;-78
2023/05/13 01:55:44;;;;;;;12.43;11.25;;;11.60;99.90;;;;;;5002747;28;20038;-77
2023/05/13 01:58:10;;;;;;;13.93;11.48;;;11.60;99.90;;;;;;4987877;28;20050;-77
2023/05/13 02:00:35;;;;;;;13.27;11.90;;;11.50;99.90;;;;;;5001872;28;20536;-77
2023/05/13 02:03:01;;;;;;;13.05;11.88;;;11.40;99.90;;;;;;4998499;28;20076;-78
2023/05/13 02:05:27;;;;;;;12.63;11.52;;;11.50;99.90;;;;;;4956464;28;20116;-77
2023/05/13 02:07:53;;;;;;;13.55;12.23;;;11.40;99.90;;;;;;4986857;28;20050;-78
2023/05/13 02:10:19;;;;;;;14.02;12.20;;;11.40;99.90;;;;;;4971941;28;20041;-78
2023/05/13 02:12:45;;;;;;;14.90;12.13;;;11.40;99.90;;;;;;4979219;28;20049;-77
2023/05/13 02:15:11;;;;;;;13.65;12.20;;;11.40;99.90;;;;;;4971324;28;20550;-78
2023/05/13 02:17:36;;;;;;;13.98;12.55;;;11.40;99.90;;;;;;4973397;28;20132;-77
2023/05/13 02:20:02;;;;;;;15.07;12.77;;;11.30;99.90;;;;;;4979491;28;20056;-78
2023/05/13 02:22:28;;;;;;;14.35;12.57;;;11.30;99.90;;;;;;4955098;28;20544;-77
2023/05/13 02:24:54;;;;;;;14.98;13.45;;;11.30;99.90;;;;;;4972825;28;20112;-77
2023/05/13 02:27:22;;;;;;;13.52;12.15;;;11.20;99.90;;;;;;4982273;28;20042;-77
2023/05/13 02:29:51;;;;;;;14.27;13.05;;;11.30;99.90;;;;;;5000305;28;20046;-77
2023/05/13 02:32:17;;;;;;;14.82;13.52;;;11.30;99.90;;;;;;4987999;28;20555;-77
2023/05/13 02:34:45;;;;;;;14.65;13.35;;;11.30;99.90;;;;;;4973077;28;20042;-77
2023/05/13 02:37:14;;;;;;;15.18;13.68;;;11.20;99.90;;;;;;4978154;28;20049;-77
2023/05/13 02:39:39;;;;;;;14.80;13.35;;;11.20;99.90;;;;;;4970759;28;20046;-77
2023/05/13 02:42:05;;;;;;;15.13;13.63;;;11.30;99.90;;;;;;4988719;28;20396;-77
2023/05/13 02:44:31;;;;;;;16.20;13.70;;;11.30;99.90;;;;;;4985962;28;20450;-77
2023/05/13 02:46:56;;;;;;;15.05;13.55;;;11.30;99.90;;;;;;4988237;28;20054;-77
2023/05/13 02:49:22;;;;;;;14.80;13.50;;;11.30;99.90;;;;;;4997373;28;20088;-78
2023/05/13 02:51:48;;;;;;;16.25;14.75;;;11.30;99.90;;;;;;4974597;28;20081;-78
2023/05/13 02:54:14;;;;;;;15.50;14.05;;;11.20;99.90;;;;;;4970394;28;20050;-78
2023/05/13 02:56:39;;;;;;;16.55;14.95;;;11.20;99.90;;;;;;5004877;28;20108;-78
2023/05/13 02:59:08;;;;;;;16.15;14.30;;;11.20;99.90;;;;;;4958135;28;20104;-78
2023/05/13 03:01:34;;;;;;;16.92;15.35;;;11.20;99.90;;;;;;4982960;28;20184;-77
2023/05/13 03:04:00;;;;;;;16.40;14.80;;;11.20;99.90;;;;;;4980439;28;20129;-78
2023/05/13 03:06:26;;;;;;;15.68;14.20;;;11.20;99.90;;;;;;4951492;28;20074;-78
2023/05/13 03:08:52;;;;;;;16.63;15.13;;;11.10;99.90;;;;;;4984556;28;20042;-78
2023/05/13 03:11:17;;;;;;;17.15;15.60;;;11.10;99.90;;;;;;4984319;28;20068;-78
2023/05/13 03:13:43;;;;;;;16.48;15.05;;;11.10;99.90;;;;;;4971946;28;20042;-78
2023/05/13 03:16:09;;;;;;;16.98;15.48;;;11.10;99.90;;;;;;5005426;28;20061;-78
2023/05/13 03:18:35;;;;;;;17.02;15.43;;;11.10;99.90;;;;;;4987866;28;20053;-78
2023/05/13 03:21:00;;;;;;;15.60;14.10;;;11.10;99.90;;;;;;4986967;28;20642;-78
2023/05/13 03:23:26;;;;;;;18.20;16.55;;;11.00;99.90;;;;;;4998429;28;20042;-78
2023/05/13 03:25:52;;;;;;;19.65;17.83;;;11.00;99.90;;;;;;4929968;28;20050;-78
2023/05/13 03:28:18;;;;;;;16.98;15.48;;;11.00;99.90;;;;;;4984664;28;20068;-78
2023/05/13 03:30:44;;;;;;;16.83;15.43;;;10.90;99.90;;;;;;4952489;28;20049;-78
2023/05/13 03:33:10;;;;;;;18.05;16.38;;;10.90;99.90;;;;;;4999033;28;20107;-78
2023/05/13 03:35:35;;;;;;;18.58;16.77;;;10.90;99.90;;;;;;4984162;28;20523;-78
2023/05/13 03:38:01;;;;;;;17.85;16.15;;;10.90;99.90;;;;;;4985105;28;20077;-78
2023/05/13 03:40:27;;;;;;;19.50;17.42;;;10.90;99.90;;;;;;4998033;28;20061;-78
2023/05/13 03:42:53;;;;;;;18.02;16.23;;;10.80;99.90;;;;;;5004683;28;20461;-78
2023/05/13 03:45:18;;;;;;;19.92;18.08;;;10.80;99.90;;;;;;4983765;28;20158;-77
2023/05/13 03:47:44;;;;;;;19.00;17.15;;;10.80;99.90;;;;;;4970555;28;20152;-77
2023/05/13 03:50:10;;;;;;;18.48;16.63;;;10.80;99.90;;;;;;4984070;28;20443;-77
2023/05/13 03:52:36;;;;;;;19.92;18.00;;;10.80;99.90;;;;;;4953701;28;20038;-78
2023/05/13 03:55:02;;;;;;;18.23;16.73;;;10.70;99.90;;;;;;5003042;28;20069;-78
2023/05/13 03:57:28;;;;;;;19.10;17.15;;;10.80;99.90;;;;;;4985374;28;20038;-78
2023/05/13 03:59:54;;;;;;;19.23;17.48;;;10.70;99.90;;;;;;5000081;28;20112;-78
2023/05/13 04:02:20;;;;;;;18.70;16.95;;;10.70;99.90;;;;;;4966015;28;20071;-78
2023/05/13 04:04:46;;;;;;;20.20;18.23;;;10.70;99.90;;;;;;4983164;28;20657;-78
2023/05/13 04:07:12;;;;;;;19.77;17.67;;;10.70;99.90;;;;;;4989936;28;20389;-77
2023/05/13 04:09:38;;;;;;;20.52;18.60;;;10.70;99.90;;;;;;4985415;28;20449;-77
2023/05/13 04:12:04;;;;;;;20.30;18.13;;;10.70;99.90;;;;;;4966850;28;20085;-78
2023/05/13 04:14:30;;;;;;;19.27;17.35;;;10.70;99.90;;;;;;4987998;28;20037;-78
2023/05/13 04:16:55;;;;;;;21.10;19.00;;;10.70;99.90;;;;;;4935040;28;20496;-77
2023/05/13 04:19:21;;;;;;;20.73;18.73;;;10.70;99.90;;;;;;4971506;28;20096;-77
2023/05/13 04:21:47;;;;;;;20.45;18.52;;;10.70;99.90;;;;;;4989864;28;20250;-78
2023/05/13 04:24:12;;;;;;;20.55;18.48;;;10.70;99.90;;;;;;4963177;28;20050;-78
2023/05/13 04:26:38;;;;;;;21.15;19.13;;;10.70;99.90;;;;;;4957275;28;20030;-78
2023/05/13 04:29:04;;;;;;;21.27;19.17;;;10.60;99.90;;;;;;4970163;28;20053;-77
2023/05/13 04:31:30;;;;;;;20.85;18.67;;;10.70;99.90;;;;;;4972248;28;20038;-78
2023/05/13 04:33:56;;;;;;;20.83;18.77;;;10.70;99.90;;;;;;4988311;28;20077;-78
2023/05/13 04:36:22;;;;;;;21.98;19.67;;;10.70;99.90;;;;;;4967445;28;20146;-79
2023/05/13 04:38:51;;;;;;;21.30;19.27;;;10.70;99.90;;;;;;4956011;28;20381;-78
2023/05/13 04:41:16;;;;;;;20.85;18.98;;;10.80;99.90;;;;;;4965162;28;20045;-78
2023/05/13 04:43:42;;;;;;;21.90;19.90;;;10.80;99.90;;;;;;4985791;28;20053;-78
2023/05/13 04:46:08;;;;;;;21.30;19.42;;;10.80;99.90;;;;;;4983629;28;20526;-78
2023/05/13 04:48:34;;;;;;;21.42;19.48;;;10.80;99.90;;;;;;5003650;28;20339;-78
2023/05/13 04:50:59;;;;;;;21.92;19.83;;;10.90;99.90;;;;;;5001892;28;20089;-78
2023/05/13 04:53:25;;;;;;;20.70;18.77;;;10.90;99.90;;;;;;4973427;28;20084;-78
2023/05/13 04:55:56;;;;;;;20.90;18.90;;;11.00;99.90;;;;;;4969920;28;20525;-77
2023/05/13 04:58:21;;;;;;;;;;;11.00;99.90;;;;;;4971929;28;20080;-78
2023/05/13 05:00:47;;;;;;;20.92;19.00;;;11.00;99.90;;;;;;5002248;28;19992;-78
2023/05/13 05:03:13;;;;;;;21.20;19.25;;;11.10;99.90;;;;;;4983058;28;20045;-78
2023/05/13 05:05:39;;;;;;;20.65;18.75;;;11.20;99.90;;;;;;4978222;28;20121;-78
2023/05/13 05:08:05;;;;;;;21.77;19.48;;;11.20;99.90;;;;;;4970312;28;20191;-78
2023/05/13 05:10:31;;;;;;;21.25;19.20;;;11.30;99.90;;;;;;4970074;28;20084;-78
2023/05/13 05:12:56;;;;;;;21.25;19.02;;;11.40;99.90;;;;;;4983564;28;20050;-79
2023/05/13 05:15:22;;;;;;;19.70;17.90;;;11.40;99.90;;;;;;4981050;28;20489;-77
2023/05/13 05:17:48;;;;;;;20.85;18.92;;;11.50;99.90;;;;;;4986278;28;21767;-77
2023/05/13 05:20:14;;;;;;;19.85;18.05;;;11.50;99.90;;;;;;5002116;28;20037;-77
2023/05/13 05:22:41;;;;;;;20.48;18.58;;;11.60;99.90;;;;;;4984328;28;20050;-77
2023/05/13 05:25:08;;;;;;;21.50;18.05;;;11.60;99.90;;;;;;4965938;28;20185;-77
2023/05/13 05:27:34;;;;;;;19.48;17.55;;;11.70;99.90;;;;;;4987980;28;20050;-77
2023/05/13 05:30:00;;;;;;;18.23;16.63;;;11.70;99.90;;;;;;4986413;28;20477;-77
2023/05/13 05:32:25;;;;;;;18.92;17.13;;;11.80;99.90;;;;;;4990935;28;20393;-76
2023/05/13 05:34:51;;;;;;;17.98;16.10;;;11.80;99.90;;;;;;4971388;28;20412;-78
2023/05/13 05:37:17;;;;;;;17.40;15.80;;;11.90;99.90;;;;;;5006578;28;20061;-78
2023/05/13 05:39:43;;;;;;;18.38;16.42;;;12.00;99.90;;;;;;4968879;28;20042;-78
2023/05/13 05:42:09;;;;;;;18.80;16.90;;;12.00;99.90;;;;;;4973298;28;20405;-78
2023/05/13 05:44:35;;;;;;;17.02;15.32;;;12.10;99.90;;;;;;4987010;28;20038;-78
2023/05/13 05:47:00;;;;;;;17.58;15.80;;;12.20;99.90;;;;;;4990573;28;20120;-78
2023/05/13 05:49:26;;;;;;;18.77;15.45;;;12.20;99.90;;;;;;4971194;28;20038;-77
2023/05/13 05:51:52;;;;;;;17.15;15.45;;;12.30;99.90;;;;;;4989809;28;20049;-78
2023/05/13 05:54:18;;;;;;;15.82;14.38;;;12.40;99.90;;;;;;4970151;28;20046;-78
2023/05/13 05:56:43;;;;;;;16.02;14.48;;;12.50;99.90;;;;;;5004569;28;20734;-77
2023/05/13 05:59:09;;;;;;;16.33;14.65;;;12.50;99.90;;;;;;4969756;28;20146;-78
2023/05/13 06:01:35;;;;;;;16.75;14.32;;;12.60;99.90;;;;;;4988923;28;20116;-78
2023/05/13 06:04:05;;;;;;;15.20;13.70;;;12.60;99.90;;;;;;4986820;28;20045;-77
2023/05/13 06:06:31;;;;;;;15.95;14.30;;;12.70;99.90;;;;;;5004770;28;20467;-77
2023/05/13 06:08:57;;;;;;;15.68;14.15;;;12.80;99.90;;;;;;4968716;28;20412;-77
2023/05/13 06:11:23;;;;;;;15.07;13.25;;;12.80;99.90;;;;;;4989420;28;20038;-78
2023/05/13 06:13:50;;;;;;;16.55;13.75;;;12.90;99.90;;;;;;4970559;28;20038;-77
2023/05/13 06:16:18;;;;;;;15.57;14.03;;;12.90;99.90;;;;;;4966891;28;20056;-80
2023/05/13 06:18:44;;;;;;;15.25;13.80;;;13.00;99.90;;;;;;4987527;28;20050;-78
2023/05/13 06:21:10;;;;;;;15.55;13.90;;;13.10;99.90;;;;;;4986759;28;20073;-77
2023/05/13 06:23:36;;;;;;;15.55;13.82;;;13.10;99.90;;;;;;4985669;28;20109;-77
2023/05/13 06:26:02;;;;;;;14.93;13.52;;;13.20;99.90;;;;;;4972752;28;20354;-77
2023/05/13 06:28:28;;;;;;;15.77;14.13;;;13.20;99.90;;;;;;4964242;28;20685;-78
2023/05/13 06:30:54;;;;;;;14.52;13.05;;;13.40;99.90;;;;;;5005837;28;20100;-77
2023/05/13 06:33:23;;;;;;;15.07;13.57;;;13.40;99.90;;;;;;4966689;28;20096;-78
2023/05/13 06:35:49;;;;;;;14.15;12.80;;;13.50;99.90;;;;;;4981374;28;20124;-79
2023/05/13 06:38:16;;;;;;;14.75;12.93;;;13.60;99.90;;;;;;4986520;28;20463;-78
2023/05/13 06:40:43;;;;;;;14.98;13.45;;;13.60;99.90;;;;;;4956415;28;20046;-78
2023/05/13 06:43:13;;;;;;;14.30;12.80;;;13.70;99.90;;;;;;5004394;28;20054;-78
2023/05/13 06:45:39;;;;;;;13.80;12.40;;;13.80;99.90;;;;;;4968317;28;20453;-78
2023/05/13 06:48:04;;;;;;;14.10;12.68;;;13.80;99.90;;;;;;4972509;28;20319;-78
2023/05/13 06:50:30;;;;;;;13.35;11.98;;;14.00;99.90;;;;;;4985075;28;20042;-78
2023/05/13 06:52:57;;;;;;;13.00;11.63;;;14.10;99.90;;;;;;5003777;28;20095;-77
2023/05/13 06:55:23;;;;;;;13.95;11.43;;;14.20;99.90;;;;;;4969707;28;20047;-78
2023/05/13 06:57:49;;;;;;;13.35;11.93;;;14.30;99.90;;;;;;4981875;28;20139;-77
2023/05/13 07:00:16;;;;;;;13.75;12.23;;;14.40;99.90;;;;;;4977549;28;20050;-78
2023/05/13 07:02:42;;;;;;;13.32;11.93;;;14.40;99.90;;;;;;4967106;28;20038;-78
2023/05/13 07:05:09;;;;;;;12.48;11.10;;;14.40;99.90;;;;;;4976124;28;20057;-78
2023/05/13 07:07:36;;;;;;;14.27;12.77;;;14.50;99.90;;;;;;4975476;28;20057;-78
2023/05/13 07:10:02;;;;;;;13.25;11.93;;;14.60;99.90;;;;;;4996452;28;20046;-78
2023/05/13 07:12:28;;;;;;;13.15;11.77;;;14.70;99.90;;;;;;4985548;28;20042;-78
2023/05/13 07:14:53;;;;;;;13.57;11.70;;;14.70;99.90;;;;;;4977426;28;20144;-79
2023/05/13 07:17:19;;;;;;;12.57;11.27;;;14.90;99.90;;;;;;5005422;28;20072;-78
2023/05/13 07:19:46;;;;;;;12.35;11.15;;;14.90;99.90;;;;;;4971988;28;20116;-79
2023/05/13 07:22:12;;;;;;;15.48;11.52;;;15.10;99.90;;;;;;4984910;28;20176;-79
2023/05/13 07:24:37;;;;;;;13.77;11.77;;;15.20;99.90;;;;;;4955451;28;20050;-78
2023/05/13 07:27:03;;;;;;;12.88;11.63;;;15.30;99.90;;;;;;5005103;28;20050;-79
2023/05/13 07:29:33;;;;;;;12.90;11.30;;;15.40;99.90;;;;;;4960085;28;20068;-80
2023/05/13 07:32:05;;;;;;;12.65;11.45;;;15.50;99.90;;;;;;4969801;28;20137;-79
2023/05/13 07:34:31;;;;;;;13.13;10.93;;;15.60;99.90;;;;;;4994233;28;20507;-79
2023/05/13 07:36:57;;;;;;;12.73;11.50;;;15.70;99.90;;;;;;4970048;28;20050;-80
2023/05/13 07:39:23;;;;;;;13.60;10.75;;;15.80;99.90;;;;;;4955430;28;20049;-79
2023/05/13 07:41:49;;;;;;;12.60;11.30;;;16.00;99.90;;;;;;4985816;28;20558;-79
2023/05/13 07:44:15;;;;;;;11.32;10.23;;;16.10;99.90;;;;;;4969247;28;20160;-81
2023/05/13 07:46:40;;;;;;;11.90;10.65;;;16.30;99.90;;;;;;4985785;28;20066;-80
2023/05/13 07:49:07;;;;;;;11.60;10.48;;;16.30;99.90;;;;;;5003501;28;20135;-78
2023/05/13 07:51:34;;;;;;;11.10;9.80;;;16.40;99.90;;;;;;4985458;28;20456;-80
2023/05/13 07:54:00;;;;;;;14.15;10.48;;;16.50;99.90;;;;;;4987575;28;20050;-79
2023/05/13 07:56:26;;;;;;;10.25;9.15;;;16.60;99.90;;;;;;4969462;28;20056;-80
2023/05/13 07:58:52;;;;;;;10.02;8.45;;;16.70;99.90;;;;;;4986267;28;20045;-80
2023/05/13 08:01:18;;;;;;;11.35;8.45;;;16.80;99.90;;;;;;4981904;28;20054;-82
2023/05/13 08:03:44;;;;;;;10.98;8.60;;;16.90;99.90;;;;;;4968510;28;20531;-81
2023/05/13 08:06:10;;;;;;;8.77;7.90;;;16.90;99.90;;;;;;4946449;28;20041;-82
2023/05/13 08:08:36;;;;;;;9.73;7.57;;;17.10;99.90;;;;;;4983620;28;20418;-83
2023/05/13 08:11:02;;;;;;;11.02;7.28;;;17.20;99.90;;;;;;4982347;28;20135;-81
2023/05/13 08:13:28;;;;;;;7.18;6.47;;;17.20;99.90;;;;;;4983701;28;20046;-82
2023/05/13 08:15:54;;;;;;;12.13;7.22;;;17.30;99.90;;;;;;4984377;28;20041;-82
2023/05/13 08:18:23;;;;;;;9.95;7.18;;;17.40;99.90;;;;;;4970968;28;20046;-81
2023/05/13 08:20:49;;;;;;;13.65;6.70;;;17.50;99.90;;;;;;5013579;28;20501;-81
2023/05/13 08:23:15;;;;;;;8.70;6.55;;;17.60;99.90;;;;;;4965191;28;20056;-82
2023/05/13 08:25:40;;;;;;;8.45;6.50;;;17.70;99.90;;;;;;4971306;28;20241;-82
2023/05/13 08:28:06;;;;;;;9.02;6.05;;;17.80;99.50;;;;;;4961961;28;20045;-81
2023/05/13 08:30:32;;;;;;;7.95;4.97;;;17.90;98.30;;;;;;4971604;28;20488;-82
2023/05/13 08:32:58;;;;;;;5.90;4.63;;;18.00;97.00;;;;;;4971437;28;20045;-82
2023/05/13 08:35:24;;;;;;;10.73;5.07;;;18.20;95.70;;;;;;4986457;28;20061;-82
2023/05/13 08:37:51;;;;;;;6.40;4.68;;;18.40;95.90;;;;;;4982961;28;20568;-81
2023/05/13 08:40:17;;;;;;;6.90;4.45;;;18.60;93.80;;;;;;4970405;28;20038;-81
2023/05/13 08:42:45;;;;;;;6.75;4.85;;;18.70;91.20;;;;;;4964589;28;20099;-81
2023/05/13 08:45:11;;;;;;;7.07;4.93;;;18.80;90.50;;;;;;4974767;28;20095;-82
2023/05/13 08:47:55;;;;;;;7.20;4.60;;;18.80;91.10;;;;;;4986434;28;20046;-81
2023/05/13 08:50:21;;;;;;;13.05;5.00;;;18.90;92.70;;;;;;5003399;28;20038;-82
2023/05/13 08:53:08;;;;;;;7.88;5.03;;;19.00;92.30;;;;;;4959126;28;20080;-81
2023/05/13 08:55:38;;;;;;;8.93;5.40;;;19.30;91.40;;;;;;4984659;28;20511;-79
2023/05/13 08:58:04;;;;;;;8.23;5.05;;;19.30;91.60;;;;;;4984954;28;20055;-80
2023/05/13 09:00:33;;;;;;;8.25;4.70;;;19.40;90.40;;;;;;5001803;28;20049;-81
2023/05/13 09:02:59;;;;;;;7.72;4.95;;;19.50;90.20;;;;;;4997460;28;20038;-79
2023/05/13 09:05:25;;;;;;;7.40;4.95;;;19.60;91.00;;;;;;4963850;28;20042;-80
2023/05/13 09:07:52;;;;;;;7.30;5.13;;;19.70;91.30;;;;;;4990395;28;20042;-79
2023/05/13 09:10:20;;;;;;;10.00;5.32;;;19.80;90.30;;;;;;4973963;28;20091;-80
2023/05/13 09:12:53;;;;;;;10.00;5.95;;;19.90;90.60;;;;;;5000418;28;20042;-82
2023/05/13 09:15:24;;;;;;;9.10;5.03;;;20.00;90.90;;;;;;4975538;28;20049;-84
2023/05/13 09:18:03;;;;;;;6.35;5.35;;;20.00;91.30;;;;;;5005689;28;20069;-83
2023/05/13 09:20:29;;;;;;;6.18;4.97;;;20.00;91.10;;;;;;4986300;28;20116;-81
2023/05/13 09:23:11;;;;;;;13.13;4.88;;;20.00;91.30;;;;;;4965235;28;20084;-81
2023/05/13 09:25:38;;;;;;;6.43;5.07;;;20.10;91.60;;;;;;4994472;28;20046;-81
2023/05/13 09:28:06;;;;;;;7.03;4.65;;;20.30;90.10;;;;;;4990428;28;20401;-81
2023/05/13 09:30:40;;;;;;;6.20;4.65;;;20.40;89.40;;;;;;4989867;28;20542;-83
2023/05/13 09:33:14;;;;;;;7.30;4.70;;;20.50;87.60;;;;;;4988409;28;20050;-80
2023/05/13 09:35:43;;;;;;;5.55;3.90;;;20.60;84.70;;;;;;4989783;28;20767;-83
2023/05/13 09:38:25;;;;;;;11.85;4.38;;;20.60;78.80;;;;;;4987930;28;20408;-83
2023/05/13 09:40:55;;;;;;;7.68;4.20;;;20.70;76.40;;;;;;4990287;28;20038;-81
2023/05/13 09:43:31;;;;;;;6.70;3.90;;;20.80;74.40;;;;;;4989378;28;20702;-80
2023/05/13 09:46:00;;;;;;;7.20;4.18;;;20.70;73.00;;;;;;4984622;28;20512;-82
2023/05/13 09:48:28;;;;;;;5.20;3.92;;;20.70;76.00;;;;;;4983367;28;20053;-80
2023/05/13 09:50:56;;;;;;;7.55;4.30;;;20.80;76.60;;;;;;4972774;28;20038;-81
2023/05/13 09:53:26;;;;;;;7.93;4.55;;;20.90;77.10;;;;;;4988513;28;20096;-82
2023/05/13 09:55:53;;;;;;;;;;;21.00;75.20;;;;;;4990999;28;20057;-82
2023/05/13 09:58:19;;;;;;;5.65;4.10;;;21.10;72.60;;;;;;4968329;28;19926;-82
2023/05/13 10:00:46;;;;;;;8.32;4.63;;;21.10;72.50;;;;;;4985568;28;20446;-82
2023/05/13 10:03:15;;;;;;;8.63;4.15;;;21.20;72.20;;;;;;4972752;28;20088;-82
2023/05/13 10:05:41;;;;;;;8.25;4.40;;;21.20;73.40;;;;;;4973994;28;20082;-82
2023/05/13 10:08:11;;;;;;;8.23;4.20;;;21.40;73.10;;;;;;4956111;28;20358;-83
2023/05/13 10:10:38;;;;;;;9.07;3.90;;;21.50;69.40;;;;;;4970846;28;20100;-83
2023/05/13 10:13:15;;;;;;;7.55;3.40;;;21.50;69.10;;;;;;4987472;28;20049;-81
2023/05/13 10:15:53;;;;;;;7.07;3.70;;;21.60;69.90;;;;;;4958113;28;20080;-82
2023/05/13 10:18:22;;;;;;;6.05;3.47;;;21.60;67.30;;;;;;4966379;28;20413;-82
2023/05/13 10:20:51;;;;;;;6.13;3.25;;;21.70;69.00;;;;;;4984083;28;20038;-80
2023/05/13 10:23:19;;;;;;;7.55;4.03;;;21.80;67.00;;;;;;4992971;28;20511;-83
2023/05/13 10:25:47;;;;;;;6.35;3.33;;;21.90;66.70;;;;;;4983698;28;20050;-85
2023/05/13 10:28:13;;;;;;;7.15;3.88;;;22.00;66.70;;;;;;4971740;28;20038;-83
2023/05/13 10:30:41;;;;;;;5.43;3.42;;;22.00;65.20;;;;;;4955642;28;20041;-83
2023/05/13 10:33:07;;;;;;;8.63;3.78;;;22.00;63.30;;;;;;4971346;28;20092;-83
2023/05/13 10:35:37;;;;;;;6.35;3.65;;;22.00;68.10;;;;;;4953333;28;20049;-83
2023/05/13 10:38:19;;;;;;;8.95;4.50;;;22.10;67.40;;;;;;4970229;28;20754;-83
2023/05/13 10:41:13;;;;;;;8.18;3.88;;;22.20;66.00;;;;;;4969396;28;20050;-83
2023/05/13 10:43:39;;;;;;;5.85;4.13;;;22.20;66.40;;;;;;4983813;28;20149;-82
2023/05/13 10:46:11;;;;;;;7.00;3.90;;;22.30;65.60;;;;;;4986666;28;20141;-82
2023/05/13 10:48:49;;;;;;;5.18;3.50;;;22.40;65.80;;;;;;5003226;28;20139;-83
2023/05/13 10:51:22;;;;;;;6.30;3.90;;;22.50;64.10;;;;;;4978160;28;20501;-82
2023/05/13 10:53:59;;;;;;;7.85;3.85;;;22.50;64.70;;;;;;4970075;28;20050;-82
2023/05/13 10:56:27;;;;;;;8.57;4.07;;;22.60;63.20;;;;;;4985792;28;20203;-83
2023/05/13 10:58:58;;;;;;;6.82;3.72;;;22.70;64.00;;;;;;4983230;28;20042;-83
2023/05/13 11:01:27;;;;;;;8.77;3.70;;;22.70;64.60;;;;;;4983942;28;20058;-81
2023/05/13 11:03:58;;;;;;;7.20;3.65;;;22.70;62.80;;;;;;4982714;28;20046;-82
2023/05/13 11:06:35;;;;;;;7.88;4.00;;;22.50;61.90;;;;;;4971814;28;20679;-81
2023/05/13 11:09:05;;;;;;;9.10;3.72;;;22.60;61.30;;;;;;5005244;28;20049;-82
2023/05/13 11:11:33;;;;;;;6.85;3.63;;;22.50;61.50;;;;;;4987258;28;20445;-83
2023/05/13 11:13:58;;;;;;;7.45;3.28;;;22.50;61.40;;;;;;4964272;28;20473;-82
2023/05/13 11:16:24;;;;;;;7.72;3.67;;;22.50;62.70;;;;;;5004807;28;20037;-81
2023/05/13 11:18:51;;;;;;;6.88;3.20;;;22.60;61.50;;;;;;4984062;28;20987;-79
2023/05/13 11:21:28;;;;;;;8.27;3.47;;;22.50;61.70;;;;;;4983411;28;20161;-80
2023/05/13 11:24:02;;;;;;;6.15;3.20;;;22.60;57.40;;;;;;4985005;28;20053;-83
2023/05/13 11:26:50;;;;;;;7.50;4.07;;;22.50;57.90;;;;;;4981743;28;20472;-81
2023/05/13 11:29:35;;;;;;;15.15;5.93;;;22.50;57.50;;;;;;4982381;28;20432;-82
2023/05/13 11:32:03;;;;;;;15.15;7.10;;;22.50;57.20;;;;;;4962007;28;20073;-80
2023/05/13 11:34:30;;;;;;;16.52;6.10;;;22.60;56.90;;;;;;4981042;28;20074;-81
2023/05/13 11:37:06;;;;;;;8.80;3.38;;;22.60;57.70;;;;;;4975706;28;20173;-80
2023/05/13 11:39:32;;;;;;;6.63;2.95;;;22.50;55.30;;;;;;4968249;28;20046;-80
2023/05/13 11:42:03;;;;;;;6.75;3.25;;;22.60;55.60;;;;;;5005789;28;20039;-81
2023/05/13 11:44:33;;;;;;;6.22;3.28;;;22.60;55.90;;;;;;4970204;28;20057;-78
2023/05/13 11:47:00;;;;;;;;;;;22.60;58.20;;;;;;4984941;28;20039;-80
2023/05/13 11:49:38;;;;;;;7.13;3.20;;;22.70;59.70;;;;;;5007280;28;19936;-81
2023/05/13 11:52:12;;;;;;;6.20;3.22;;;22.90;56.30;;;;;;4997847;28;20078;-79
2023/05/13 11:54:48;;;;;;;6.32;3.05;;;22.90;53.90;;;;;;4981787;28;20108;-82
2023/05/13 11:57:16;;;;;;;8.40;3.40;;;22.80;53.70;;;;;;4979459;28;20085;-83
2023/05/13 12:00:11;;;;;;;7.65;3.47;;;22.80;57.00;;;;;;4978602;28;20042;-80
2023/05/13 12:02:39;;;;;;;8.50;3.75;;;22.80;57.90;;;;;;4957529;28;20904;-82
2023/05/13 12:05:10;;;;;;;5.05;3.30;;;22.80;57.80;;;;;;4981349;28;20782;-81
2023/05/13 12:07:37;;;;;;;6.13;3.47;;;22.90;56.30;;;;;;4966464;28;20092;-81
2023/05/13 12:10:05;;;;;;;6.32;3.35;;;22.80;54.50;;;;;;4968044;28;20050;-81
2023/05/13 12:12:33;;;;;;;7.93;3.70;;;22.80;56.00;;;;;;4969764;28;20150;-83
2023/05/13 12:15:05;;;;;;;10.52;3.65;;;22.70;56.00;;;;;;4981317;28;20041;-81
2023/05/13 12:17:32;;;;;;;5.97;3.70;;;22.80;55.70;;;;;;4981470;28;20058;-81
2023/05/13 12:20:17;;;;;;;5.50;3.40;;;22.70;55.60;;;;;;4985400;28;20073;-81
2023/05/13 12:22:43;;;;;;;5.60;3.53;;;22.80;55.00;;;;;;4966642;28;20050;-81
2023/05/13 12:25:37;;;;;;;6.32;3.50;;;22.80;55.80;;;;;;4969716;28;20038;-82
2023/05/13 12:28:21;;;;;;;10.00;3.63;;;22.90;54.10;;;;;;4984684;28;20041;-82
2023/05/13 12:31:01;;;;;;;5.03;3.55;;;22.90;54.00;;;;;;4984498;28;20065;-81
2023/05/13 12:33:48;;;;;;;6.32;3.40;;;22.70;55.00;;;;;;4983804;28;20081;-82
2023/05/13 12:36:22;;;;;;;6.55;3.33;;;22.50;57.20;;;;;;4971800;28;20092;-82
2023/05/13 12:39:08;;;;;;;8.13;3.60;;;22.60;58.80;;;;;;4971791;28;20044;-81
2023/05/13 12:41:39;;;;;;;6.50;3.55;;;22.80;57.80;;;;;;4966179;28;20049;-82